sensor_id;sensor_type;location;lat;lon;timestamp;P1;P2;P0
47810;PMS5003;33575;52.600;7.318;2023-06-10T00:01:04;10;9;
47810;PMS5003;33575;52.600;7.318;2023-06-10T00:03:35;10;10;
47810;PMS5003;33575;52.600;7.318;2023-06-10T00:06:05;11;9;
47810;PMS5003;33575;52.600;7.318;2023-06-10T00:08:35;10;10;
47810;PMS5003;33575;52.600;7.318;2023-06-10T00:11:05;11;9;
47810;PMS5003;33575;52.600;7.318;2023-06-10T00:13:35;9;8;
47810;PMS5003;33575;52.600;7.318;2023-06-10T00:16:06;10;9;
47810;PMS5003;33575;52.600;7.318;2023-06-10T00:18:36;13;12;
47810;PMS5003;33575;52.600;7.318;2023-06-10T00:21:07;11;11;
47810;PMS5003;33575;52.600;7.318;2023-06-10T00:23:38;8;7;
47810;PMS5003;33575;52.600;7.318;2023-06-10T00:26:08;11;11;
47810;PMS5003;33575;52.600;7.318;2023-06-10T00:28:38;10;9;
47810;PMS5003;33575;52.600;7.318;2023-06-10T00:31:09;12;11;
47810;PMS5003;33575;52.600;7.318;2023-06-10T00:33:38;13;13;
47810;PMS5003;33575;52.600;7.318;2023-06-10T00:36:09;10;10;
47810;PMS5003;33575;52.600;7.318;2023-06-10T00:38:39;13;13;
47810;PMS5003;33575;52.600;7.318;2023-06-10T00:41:09;10;10;
47810;PMS5003;33575;52.600;7.318;2023-06-10T00:43:40;13;11;
47810;PMS5003;33575;52.600;7.318;2023-06-10T00:46:10;13;13;
47810;PMS5003;33575;52.600;7.318;2023-06-10T00:48:40;12;11;
47810;PMS5003;33575;52.600;7.318;2023-06-10T00:51:11;15;14;
47810;PMS5003;33575;52.600;7.318;2023-06-10T00:53:41;17;16;
47810;PMS5003;33575;52.600;7.318;2023-06-10T00:56:11;22;21;
47810;PMS5003;33575;52.600;7.318;2023-06-10T00:58:42;14;14;
47810;PMS5003;33575;52.600;7.318;2023-06-10T01:01:13;17;13;
47810;PMS5003;33575;52.600;7.318;2023-06-10T01:03:42;13;12;
47810;PMS5003;33575;52.600;7.318;2023-06-10T01:06:19;15;14;
47810;PMS5003;33575;52.600;7.318;2023-06-10T01:08:46;15;14;
47810;PMS5003;33575;52.600;7.318;2023-06-10T01:11:16;14;13;
47810;PMS5003;33575;52.600;7.318;2023-06-10T01:13:44;13;12;
47810;PMS5003;33575;52.600;7.318;2023-06-10T01:16:14;12;12;
47810;PMS5003;33575;52.600;7.318;2023-06-10T01:18:45;12;11;
47810;PMS5003;33575;52.600;7.318;2023-06-10T01:21:19;11;11;
47810;PMS5003;33575;52.600;7.318;2023-06-10T01:23:46;12;11;
47810;PMS5003;33575;52.600;7.318;2023-06-10T01:26:16;11;11;
47810;PMS5003;33575;52.600;7.318;2023-06-10T01:28:48;13;12;
47810;PMS5003;33575;52.600;7.318;2023-06-10T01:31:18;14;13;
47810;PMS5003;33575;52.600;7.318;2023-06-10T01:33:47;11;11;
47810;PMS5003;33575;52.600;7.318;2023-06-10T01:36:18;12;12;
47810;PMS5003;33575;52.600;7.318;2023-06-10T01:38:48;12;11;
47810;PMS5003;33575;52.600;7.318;2023-06-10T01:41:18;11;11;
47810;PMS5003;33575;52.600;7.318;2023-06-10T01:43:49;11;11;
47810;PMS5003;33575;52.600;7.318;2023-06-10T01:46:19;13;12;
47810;PMS5003;33575;52.600;7.318;2023-06-10T01:48:50;14;14;
47810;PMS5003;33575;52.600;7.318;2023-06-10T01:51:20;11;10;
47810;PMS5003;33575;52.600;7.318;2023-06-10T01:53:50;12;11;
47810;PMS5003;33575;52.600;7.318;2023-06-10T01:56:20;9;9;
47810;PMS5003;33575;52.600;7.318;2023-06-10T01:58:51;9;9;
47810;PMS5003;33575;52.600;7.318;2023-06-10T02:01:21;13;12;
47810;PMS5003;33575;52.600;7.318;2023-06-10T02:03:51;10;9;
47810;PMS5003;33575;52.600;7.318;2023-06-10T02:06:21;10;9;
47810;PMS5003;33575;52.600;7.318;2023-06-10T02:08:52;12;10;
47810;PMS5003;33575;52.600;7.318;2023-06-10T02:11:22;13;13;
47810;PMS5003;33575;52.600;7.318;2023-06-10T02:13:53;13;12;
47810;PMS5003;33575;52.600;7.318;2023-06-10T02:16:23;17;13;
47810;PMS5003;33575;52.600;7.318;2023-06-10T02:18:53;10;10;
47810;PMS5003;33575;52.600;7.318;2023-06-10T02:21:24;13;12;
47810;PMS5003;33575;52.600;7.318;2023-06-10T02:23:54;12;10;
47810;PMS5003;33575;52.600;7.318;2023-06-10T02:26:24;11;11;
47810;PMS5003;33575;52.600;7.318;2023-06-10T02:28:55;13;11;
47810;PMS5003;33575;52.600;7.318;2023-06-10T02:31:25;13;12;
47810;PMS5003;33575;52.600;7.318;2023-06-10T02:33:56;13;12;
47810;PMS5003;33575;52.600;7.318;2023-06-10T02:36:26;12;12;
47810;PMS5003;33575;52.600;7.318;2023-06-10T02:38:56;12;11;
47810;PMS5003;33575;52.600;7.318;2023-06-10T02:41:27;15;13;
47810;PMS5003;33575;52.600;7.318;2023-06-10T02:43:57;14;14;
47810;PMS5003;33575;52.600;7.318;2023-06-10T02:46:28;18;17;
47810;PMS5003;33575;52.600;7.318;2023-06-10T02:48:58;13;13;
47810;PMS5003;33575;52.600;7.318;2023-06-10T02:51:29;12;12;
47810;PMS5003;33575;52.600;7.318;2023-06-10T02:53:59;14;11;
47810;PMS5003;33575;52.600;7.318;2023-06-10T02:56:30;20;15;
47810;PMS5003;33575;52.600;7.318;2023-06-10T02:59:01;11;11;
47810;PMS5003;33575;52.600;7.318;2023-06-10T03:01:31;12;11;
47810;PMS5003;33575;52.600;7.318;2023-06-10T03:04:01;13;12;
47810;PMS5003;33575;52.600;7.318;2023-06-10T03:06:32;18;17;
47810;PMS5003;33575;52.600;7.318;2023-06-10T03:09:04;12;12;
47810;PMS5003;33575;52.600;7.318;2023-06-10T03:11:33;13;13;
47810;PMS5003;33575;52.600;7.318;2023-06-10T03:14:03;13;12;
47810;PMS5003;33575;52.600;7.318;2023-06-10T03:16:33;13;13;
47810;PMS5003;33575;52.600;7.318;2023-06-10T03:19:04;13;12;
47810;PMS5003;33575;52.600;7.318;2023-06-10T03:21:34;11;11;
47810;PMS5003;33575;52.600;7.318;2023-06-10T03:24:05;10;10;
47810;PMS5003;33575;52.600;7.318;2023-06-10T03:26:35;11;11;
47810;PMS5003;33575;52.600;7.318;2023-06-10T03:29:05;13;12;
47810;PMS5003;33575;52.600;7.318;2023-06-10T03:31:36;12;12;
47810;PMS5003;33575;52.600;7.318;2023-06-10T03:34:06;12;12;
47810;PMS5003;33575;52.600;7.318;2023-06-10T03:36:36;13;12;
47810;PMS5003;33575;52.600;7.318;2023-06-10T03:39:07;9;9;
47810;PMS5003;33575;52.600;7.318;2023-06-10T03:41:38;11;11;
47810;PMS5003;33575;52.600;7.318;2023-06-10T03:44:08;13;12;
47810;PMS5003;33575;52.600;7.318;2023-06-10T03:46:38;13;13;
47810;PMS5003;33575;52.600;7.318;2023-06-10T03:49:09;14;13;
47810;PMS5003;33575;52.600;7.318;2023-06-10T03:51:39;14;11;
47810;PMS5003;33575;52.600;7.318;2023-06-10T03:54:09;15;14;
47810;PMS5003;33575;52.600;7.318;2023-06-10T03:56:40;12;12;
47810;PMS5003;33575;52.600;7.318;2023-06-10T03:59:10;18;17;
47810;PMS5003;33575;52.600;7.318;2023-06-10T04:01:40;14;14;
47810;PMS5003;33575;52.600;7.318;2023-06-10T04:04:13;12;12;
47810;PMS5003;33575;52.600;7.318;2023-06-10T04:06:41;13;12;
47810;PMS5003;33575;52.600;7.318;2023-06-10T04:09:11;15;13;
47810;PMS5003;33575;52.600;7.318;2023-06-10T04:11:41;15;14;
47810;PMS5003;33575;52.600;7.318;2023-06-10T04:14:11;13;13;
47810;PMS5003;33575;52.600;7.318;2023-06-10T04:16:42;14;14;
47810;PMS5003;33575;52.600;7.318;2023-06-10T04:19:12;17;16;
47810;PMS5003;33575;52.600;7.318;2023-06-10T04:21:43;15;12;
47810;PMS5003;33575;52.600;7.318;2023-06-10T04:24:13;12;12;
47810;PMS5003;33575;52.600;7.318;2023-06-10T04:26:43;14;13;
47810;PMS5003;33575;52.600;7.318;2023-06-10T04:29:14;12;11;
47810;PMS5003;33575;52.600;7.318;2023-06-10T04:31:44;13;12;
47810;PMS5003;33575;52.600;7.318;2023-06-10T04:34:14;15;13;
47810;PMS5003;33575;52.600;7.318;2023-06-10T04:36:45;14;14;
47810;PMS5003;33575;52.600;7.318;2023-06-10T04:39:15;12;12;
47810;PMS5003;33575;52.600;7.318;2023-06-10T04:41:46;12;12;
47810;PMS5003;33575;52.600;7.318;2023-06-10T04:44:16;14;14;
47810;PMS5003;33575;52.600;7.318;2023-06-10T04:46:46;13;12;
47810;PMS5003;33575;52.600;7.318;2023-06-10T04:49:16;13;13;
47810;PMS5003;33575;52.600;7.318;2023-06-10T04:51:47;13;12;
47810;PMS5003;33575;52.600;7.318;2023-06-10T04:54:17;15;14;
47810;PMS5003;33575;52.600;7.318;2023-06-10T04:56:47;13;13;
47810;PMS5003;33575;52.600;7.318;2023-06-10T04:59:18;13;13;
47810;PMS5003;33575;52.600;7.318;2023-06-10T05:01:48;15;14;
47810;PMS5003;33575;52.600;7.318;2023-06-10T05:04:18;14;13;
47810;PMS5003;33575;52.600;7.318;2023-06-10T05:06:49;12;12;
47810;PMS5003;33575;52.600;7.318;2023-06-10T05:09:19;17;15;
47810;PMS5003;33575;52.600;7.318;2023-06-10T05:11:50;13;12;
47810;PMS5003;33575;52.600;7.318;2023-06-10T05:14:20;16;15;
47810;PMS5003;33575;52.600;7.318;2023-06-10T05:16:50;14;13;
47810;PMS5003;33575;52.600;7.318;2023-06-10T05:19:20;15;14;
47810;PMS5003;33575;52.600;7.318;2023-06-10T05:21:51;19;16;
47810;PMS5003;33575;52.600;7.318;2023-06-10T05:24:21;15;13;
47810;PMS5003;33575;52.600;7.318;2023-06-10T05:26:51;13;13;
47810;PMS5003;33575;52.600;7.318;2023-06-10T05:29:22;13;12;
47810;PMS5003;33575;52.600;7.318;2023-06-10T05:31:52;14;12;
47810;PMS5003;33575;52.600;7.318;2023-06-10T05:34:23;14;13;
47810;PMS5003;33575;52.600;7.318;2023-06-10T05:36:53;15;13;
47810;PMS5003;33575;52.600;7.318;2023-06-10T05:39:23;10;10;
47810;PMS5003;33575;52.600;7.318;2023-06-10T05:41:53;12;12;
47810;PMS5003;33575;52.600;7.318;2023-06-10T05:44:24;15;15;
47810;PMS5003;33575;52.600;7.318;2023-06-10T05:46:54;14;13;
47810;PMS5003;33575;52.600;7.318;2023-06-10T05:49:24;13;13;
47810;PMS5003;33575;52.600;7.318;2023-06-10T05:51:54;14;13;
47810;PMS5003;33575;52.600;7.318;2023-06-10T05:54:25;15;15;
47810;PMS5003;33575;52.600;7.318;2023-06-10T05:56:55;16;14;
47810;PMS5003;33575;52.600;7.318;2023-06-10T05:59:25;16;14;
47810;PMS5003;33575;52.600;7.318;2023-06-10T06:01:55;16;15;
47810;PMS5003;33575;52.600;7.318;2023-06-10T06:04:26;14;14;
47810;PMS5003;33575;52.600;7.318;2023-06-10T06:06:56;15;15;
47810;PMS5003;33575;52.600;7.318;2023-06-10T06:09:27;14;13;
47810;PMS5003;33575;52.600;7.318;2023-06-10T06:11:57;14;14;
47810;PMS5003;33575;52.600;7.318;2023-06-10T06:16:58;15;14;
47810;PMS5003;33575;52.600;7.318;2023-06-10T06:19:29;16;13;
47810;PMS5003;33575;52.600;7.318;2023-06-10T06:21:59;15;15;
47810;PMS5003;33575;52.600;7.318;2023-06-10T06:24:30;14;14;
47810;PMS5003;33575;52.600;7.318;2023-06-10T06:27:00;18;17;
47810;PMS5003;33575;52.600;7.318;2023-06-10T06:29:31;16;15;
47810;PMS5003;33575;52.600;7.318;2023-06-10T06:32:00;16;16;
47810;PMS5003;33575;52.600;7.318;2023-06-10T06:34:31;19;18;
47810;PMS5003;33575;52.600;7.318;2023-06-10T06:37:01;14;13;
47810;PMS5003;33575;52.600;7.318;2023-06-10T06:39:31;15;14;
47810;PMS5003;33575;52.600;7.318;2023-06-10T06:42:02;17;16;
47810;PMS5003;33575;52.600;7.318;2023-06-10T06:44:32;12;11;
47810;PMS5003;33575;52.600;7.318;2023-06-10T06:47:03;15;12;
47810;PMS5003;33575;52.600;7.318;2023-06-10T06:49:32;13;12;
47810;PMS5003;33575;52.600;7.318;2023-06-10T06:52:03;15;14;
47810;PMS5003;33575;52.600;7.318;2023-06-10T06:54:33;13;12;
47810;PMS5003;33575;52.600;7.318;2023-06-10T06:57:04;13;13;
47810;PMS5003;33575;52.600;7.318;2023-06-10T06:59:34;14;13;
47810;PMS5003;33575;52.600;7.318;2023-06-10T07:02:05;15;13;
47810;PMS5003;33575;52.600;7.318;2023-06-10T07:04:35;15;14;
47810;PMS5003;33575;52.600;7.318;2023-06-10T07:07:06;16;15;
47810;PMS5003;33575;52.600;7.318;2023-06-10T07:09:35;16;16;
47810;PMS5003;33575;52.600;7.318;2023-06-10T07:12:06;16;15;
47810;PMS5003;33575;52.600;7.318;2023-06-10T07:14:35;13;13;
47810;PMS5003;33575;52.600;7.318;2023-06-10T07:17:06;13;13;
47810;PMS5003;33575;52.600;7.318;2023-06-10T07:19:36;13;13;
47810;PMS5003;33575;52.600;7.318;2023-06-10T07:22:06;16;14;
47810;PMS5003;33575;52.600;7.318;2023-06-10T07:24:37;14;13;
47810;PMS5003;33575;52.600;7.318;2023-06-10T07:27:07;14;14;
47810;PMS5003;33575;52.600;7.318;2023-06-10T07:29:37;15;15;
47810;PMS5003;33575;52.600;7.318;2023-06-10T07:32:08;14;14;
47810;PMS5003;33575;52.600;7.318;2023-06-10T07:34:38;17;16;
47810;PMS5003;33575;52.600;7.318;2023-06-10T07:37:08;36;36;
47810;PMS5003;33575;52.600;7.318;2023-06-10T07:39:38;18;18;
47810;PMS5003;33575;52.600;7.318;2023-06-10T07:42:09;30;29;
47810;PMS5003;33575;52.600;7.318;2023-06-10T07:44:39;32;32;
47810;PMS5003;33575;52.600;7.318;2023-06-10T07:47:10;30;29;
47810;PMS5003;33575;52.600;7.318;2023-06-10T07:49:40;15;14;
47810;PMS5003;33575;52.600;7.318;2023-06-10T07:52:10;18;17;
47810;PMS5003;33575;52.600;7.318;2023-06-10T07:54:40;17;17;
47810;PMS5003;33575;52.600;7.318;2023-06-10T07:57:11;16;16;
47810;PMS5003;33575;52.600;7.318;2023-06-10T07:59:41;14;13;
47810;PMS5003;33575;52.600;7.318;2023-06-10T08:02:12;11;10;
47810;PMS5003;33575;52.600;7.318;2023-06-10T08:04:42;14;13;
47810;PMS5003;33575;52.600;7.318;2023-06-10T08:07:12;13;13;
47810;PMS5003;33575;52.600;7.318;2023-06-10T08:09:42;13;13;
47810;PMS5003;33575;52.600;7.318;2023-06-10T08:12:13;13;13;
47810;PMS5003;33575;52.600;7.318;2023-06-10T08:14:43;13;12;
47810;PMS5003;33575;52.600;7.318;2023-06-10T08:17:13;14;13;
47810;PMS5003;33575;52.600;7.318;2023-06-10T08:19:43;16;15;
47810;PMS5003;33575;52.600;7.318;2023-06-10T08:22:14;16;15;
47810;PMS5003;33575;52.600;7.318;2023-06-10T08:24:46;14;13;
47810;PMS5003;33575;52.600;7.318;2023-06-10T08:27:14;15;14;
47810;PMS5003;33575;52.600;7.318;2023-06-10T08:29:44;14;14;
47810;PMS5003;33575;52.600;7.318;2023-06-10T08:32:15;14;13;
47810;PMS5003;33575;52.600;7.318;2023-06-10T08:34:46;15;14;
47810;PMS5003;33575;52.600;7.318;2023-06-10T08:37:16;13;12;
47810;PMS5003;33575;52.600;7.318;2023-06-10T08:39:46;13;11;
47810;PMS5003;33575;52.600;7.318;2023-06-10T08:42:18;16;13;
47810;PMS5003;33575;52.600;7.318;2023-06-10T08:44:47;14;13;
47810;PMS5003;33575;52.600;7.318;2023-06-10T08:47:17;12;12;
47810;PMS5003;33575;52.600;7.318;2023-06-10T08:49:47;13;13;
47810;PMS5003;33575;52.600;7.318;2023-06-10T08:52:17;16;14;
47810;PMS5003;33575;52.600;7.318;2023-06-10T08:54:48;14;13;
47810;PMS5003;33575;52.600;7.318;2023-06-10T08:57:18;12;12;
47810;PMS5003;33575;52.600;7.318;2023-06-10T08:59:48;12;12;
47810;PMS5003;33575;52.600;7.318;2023-06-10T09:02:18;12;12;
47810;PMS5003;33575;52.600;7.318;2023-06-10T09:04:49;13;13;
47810;PMS5003;33575;52.600;7.318;2023-06-10T09:07:19;14;13;
47810;PMS5003;33575;52.600;7.318;2023-06-10T09:09:49;14;13;
47810;PMS5003;33575;52.600;7.318;2023-06-10T09:12:20;12;9;
47810;PMS5003;33575;52.600;7.318;2023-06-10T09:14:50;15;15;
47810;PMS5003;33575;52.600;7.318;2023-06-10T09:17:20;11;10;
47810;PMS5003;33575;52.600;7.318;2023-06-10T09:19:50;11;11;
47810;PMS5003;33575;52.600;7.318;2023-06-10T09:22:22;10;10;
47810;PMS5003;33575;52.600;7.318;2023-06-10T09:24:50;14;13;
47810;PMS5003;33575;52.600;7.318;2023-06-10T09:27:21;11;11;
47810;PMS5003;33575;52.600;7.318;2023-06-10T09:29:51;15;13;
47810;PMS5003;33575;52.600;7.318;2023-06-10T09:32:21;14;12;
47810;PMS5003;33575;52.600;7.318;2023-06-10T09:34:51;14;13;
47810;PMS5003;33575;52.600;7.318;2023-06-10T09:37:22;11;11;
47810;PMS5003;33575;52.600;7.318;2023-06-10T09:42:22;11;11;
47810;PMS5003;33575;52.600;7.318;2023-06-10T09:44:52;14;14;
47810;PMS5003;33575;52.600;7.318;2023-06-10T09:47:24;14;14;
47810;PMS5003;33575;52.600;7.318;2023-06-10T09:49:53;16;14;
47810;PMS5003;33575;52.600;7.318;2023-06-10T09:52:23;17;12;
47810;PMS5003;33575;52.600;7.318;2023-06-10T09:54:53;11;10;
47810;PMS5003;33575;52.600;7.318;2023-06-10T09:57:23;12;12;
47810;PMS5003;33575;52.600;7.318;2023-06-10T09:59:53;9;9;
47810;PMS5003;33575;52.600;7.318;2023-06-10T10:02:24;9;9;
47810;PMS5003;33575;52.600;7.318;2023-06-10T10:04:57;9;9;
47810;PMS5003;33575;52.600;7.318;2023-06-10T10:07:24;13;12;
47810;PMS5003;33575;52.600;7.318;2023-06-10T10:09:55;9;8;
47810;PMS5003;33575;52.600;7.318;2023-06-10T10:12:25;11;11;
47810;PMS5003;33575;52.600;7.318;2023-06-10T10:14:55;13;13;
47810;PMS5003;33575;52.600;7.318;2023-06-10T10:17:26;26;25;
47810;PMS5003;33575;52.600;7.318;2023-06-10T10:19:57;14;14;
47810;PMS5003;33575;52.600;7.318;2023-06-10T10:22:28;14;14;
47810;PMS5003;33575;52.600;7.318;2023-06-10T10:24:57;12;11;
47810;PMS5003;33575;52.600;7.318;2023-06-10T10:27:28;12;11;
47810;PMS5003;33575;52.600;7.318;2023-06-10T10:29:58;11;11;
47810;PMS5003;33575;52.600;7.318;2023-06-10T10:32:29;7;7;
47810;PMS5003;33575;52.600;7.318;2023-06-10T10:34:59;11;10;
47810;PMS5003;33575;52.600;7.318;2023-06-10T10:37:27;15;12;
47810;PMS5003;33575;52.600;7.318;2023-06-10T10:39:58;12;11;
47810;PMS5003;33575;52.600;7.318;2023-06-10T10:42:29;14;13;
47810;PMS5003;33575;52.600;7.318;2023-06-10T10:45:00;13;13;
47810;PMS5003;33575;52.600;7.318;2023-06-10T10:47:30;12;11;
47810;PMS5003;33575;52.600;7.318;2023-06-10T10:50:00;11;11;
47810;PMS5003;33575;52.600;7.318;2023-06-10T10:52:46;11;10;
47810;PMS5003;33575;52.600;7.318;2023-06-10T10:55:00;10;10;
47810;PMS5003;33575;52.600;7.318;2023-06-10T10:57:30;10;9;
47810;PMS5003;33575;52.600;7.318;2023-06-10T11:00:00;8;8;
47810;PMS5003;33575;52.600;7.318;2023-06-10T11:02:32;7;7;
47810;PMS5003;33575;52.600;7.318;2023-06-10T11:05:01;7;7;
47810;PMS5003;33575;52.600;7.318;2023-06-10T11:07:31;14;12;
47810;PMS5003;33575;52.600;7.318;2023-06-10T11:10:02;13;12;
47810;PMS5003;33575;52.600;7.318;2023-06-10T11:15:01;15;14;
47810;PMS5003;33575;52.600;7.318;2023-06-10T11:17:32;16;16;
47810;PMS5003;33575;52.600;7.318;2023-06-10T11:20:02;12;12;
47810;PMS5003;33575;52.600;7.318;2023-06-10T11:22:32;16;15;
47810;PMS5003;33575;52.600;7.318;2023-06-10T11:25:03;11;11;
47810;PMS5003;33575;52.600;7.318;2023-06-10T11:27:37;11;11;
47810;PMS5003;33575;52.600;7.318;2023-06-10T11:32:34;17;15;
47810;PMS5003;33575;52.600;7.318;2023-06-10T11:35:04;11;11;
47810;PMS5003;33575;52.600;7.318;2023-06-10T11:37:34;16;15;
47810;PMS5003;33575;52.600;7.318;2023-06-10T11:40:04;9;9;
47810;PMS5003;33575;52.600;7.318;2023-06-10T11:42:38;12;12;
47810;PMS5003;33575;52.600;7.318;2023-06-10T11:45:04;11;11;
47810;PMS5003;33575;52.600;7.318;2023-06-10T11:47:35;10;9;
47810;PMS5003;33575;52.600;7.318;2023-06-10T11:50:05;10;10;
47810;PMS5003;33575;52.600;7.318;2023-06-10T11:52:35;29;28;
47810;PMS5003;33575;52.600;7.318;2023-06-10T11:55:06;14;14;
47810;PMS5003;33575;52.600;7.318;2023-06-10T11:57:35;13;13;
47810;PMS5003;33575;52.600;7.318;2023-06-10T12:00:06;16;14;
47810;PMS5003;33575;52.600;7.318;2023-06-10T12:02:36;11;11;
47810;PMS5003;33575;52.600;7.318;2023-06-10T12:05:09;13;12;
47810;PMS5003;33575;52.600;7.318;2023-06-10T12:07:35;10;10;
47810;PMS5003;33575;52.600;7.318;2023-06-10T12:10:10;9;8;
47810;PMS5003;33575;52.600;7.318;2023-06-10T12:12:36;8;8;
47810;PMS5003;33575;52.600;7.318;2023-06-10T12:15:07;9;7;
47810;PMS5003;33575;52.600;7.318;2023-06-10T12:17:37;10;10;
47810;PMS5003;33575;52.600;7.318;2023-06-10T12:20:07;10;10;
47810;PMS5003;33575;52.600;7.318;2023-06-10T12:22:37;8;8;
47810;PMS5003;33575;52.600;7.318;2023-06-10T12:25:07;9;9;
47810;PMS5003;33575;52.600;7.318;2023-06-10T12:27:37;11;10;
47810;PMS5003;33575;52.600;7.318;2023-06-10T12:30:06;8;8;
47810;PMS5003;33575;52.600;7.318;2023-06-10T12:32:37;10;10;
47810;PMS5003;33575;52.600;7.318;2023-06-10T12:35:07;11;11;
47810;PMS5003;33575;52.600;7.318;2023-06-10T12:37:40;12;10;
47810;PMS5003;33575;52.600;7.318;2023-06-10T12:40:07;11;10;
47810;PMS5003;33575;52.600;7.318;2023-06-10T12:42:36;9;9;
47810;PMS5003;33575;52.600;7.318;2023-06-10T12:45:08;12;12;
47810;PMS5003;33575;52.600;7.318;2023-06-10T12:47:37;10;10;
47810;PMS5003;33575;52.600;7.318;2023-06-10T12:50:07;10;10;
47810;PMS5003;33575;52.600;7.318;2023-06-10T12:52:38;9;9;
47810;PMS5003;33575;52.600;7.318;2023-06-10T12:55:08;10;9;
47810;PMS5003;33575;52.600;7.318;2023-06-10T13:00:09;8;8;
47810;PMS5003;33575;52.600;7.318;2023-06-10T13:02:38;9;9;
47810;PMS5003;33575;52.600;7.318;2023-06-10T13:05:09;10;9;
47810;PMS5003;33575;52.600;7.318;2023-06-10T13:07:38;9;9;
47810;PMS5003;33575;52.600;7.318;2023-06-10T13:10:09;9;9;
47810;PMS5003;33575;52.600;7.318;2023-06-10T13:12:44;7;7;
47810;PMS5003;33575;52.600;7.318;2023-06-10T13:15:10;8;8;
47810;PMS5003;33575;52.600;7.318;2023-06-10T13:17:39;8;8;
47810;PMS5003;33575;52.600;7.318;2023-06-10T13:20:09;9;9;
47810;PMS5003;33575;52.600;7.318;2023-06-10T13:22:39;8;8;
47810;PMS5003;33575;52.600;7.318;2023-06-10T13:25:10;7;7;
47810;PMS5003;33575;52.600;7.318;2023-06-10T13:27:39;7;7;
47810;PMS5003;33575;52.600;7.318;2023-06-10T13:30:10;9;8;
47810;PMS5003;33575;52.600;7.318;2023-06-10T13:32:40;7;7;
47810;PMS5003;33575;52.600;7.318;2023-06-10T13:35:10;7;7;
47810;PMS5003;33575;52.600;7.318;2023-06-10T13:37:39;7;7;
47810;PMS5003;33575;52.600;7.318;2023-06-10T13:40:10;10;10;
47810;PMS5003;33575;52.600;7.318;2023-06-10T13:42:39;8;8;
47810;PMS5003;33575;52.600;7.318;2023-06-10T13:45:10;9;8;
47810;PMS5003;33575;52.600;7.318;2023-06-10T13:47:40;12;12;
47810;PMS5003;33575;52.600;7.318;2023-06-10T13:50:10;8;8;
47810;PMS5003;33575;52.600;7.318;2023-06-10T13:52:41;11;11;
47810;PMS5003;33575;52.600;7.318;2023-06-10T13:55:11;7;7;
47810;PMS5003;33575;52.600;7.318;2023-06-10T13:57:41;10;8;
47810;PMS5003;33575;52.600;7.318;2023-06-10T14:00:11;8;7;
47810;PMS5003;33575;52.600;7.318;2023-06-10T14:02:41;11;10;
47810;PMS5003;33575;52.600;7.318;2023-06-10T14:05:11;6;6;
47810;PMS5003;33575;52.600;7.318;2023-06-10T14:07:41;7;7;
47810;PMS5003;33575;52.600;7.318;2023-06-10T14:10:11;8;8;
47810;PMS5003;33575;52.600;7.318;2023-06-10T14:12:41;8;7;
47810;PMS5003;33575;52.600;7.318;2023-06-10T14:15:11;9;8;
47810;PMS5003;33575;52.600;7.318;2023-06-10T14:17:41;7;7;
47810;PMS5003;33575;52.600;7.318;2023-06-10T14:20:11;8;8;
47810;PMS5003;33575;52.600;7.318;2023-06-10T14:22:41;9;7;
47810;PMS5003;33575;52.600;7.318;2023-06-10T14:25:11;6;6;
47810;PMS5003;33575;52.600;7.318;2023-06-10T14:27:41;8;8;
47810;PMS5003;33575;52.600;7.318;2023-06-10T14:30:11;6;6;
47810;PMS5003;33575;52.600;7.318;2023-06-10T14:32:41;10;9;
47810;PMS5003;33575;52.600;7.318;2023-06-10T14:35:11;6;5;
47810;PMS5003;33575;52.600;7.318;2023-06-10T14:37:41;8;8;
47810;PMS5003;33575;52.600;7.318;2023-06-10T14:40:11;10;9;
47810;PMS5003;33575;52.600;7.318;2023-06-10T14:42:41;9;9;
47810;PMS5003;33575;52.600;7.318;2023-06-10T14:45:12;10;9;
47810;PMS5003;33575;52.600;7.318;2023-06-10T14:47:41;9;8;
47810;PMS5003;33575;52.600;7.318;2023-06-10T14:50:11;10;8;
47810;PMS5003;33575;52.600;7.318;2023-06-10T14:52:42;8;8;
47810;PMS5003;33575;52.600;7.318;2023-06-10T14:55:12;9;7;
47810;PMS5003;33575;52.600;7.318;2023-06-10T14:57:42;12;9;
47810;PMS5003;33575;52.600;7.318;2023-06-10T15:00:13;10;10;
47810;PMS5003;33575;52.600;7.318;2023-06-10T15:02:42;10;10;
47810;PMS5003;33575;52.600;7.318;2023-06-10T15:05:12;10;10;
47810;PMS5003;33575;52.600;7.318;2023-06-10T15:07:42;9;9;
47810;PMS5003;33575;52.600;7.318;2023-06-10T15:10:12;10;9;
47810;PMS5003;33575;52.600;7.318;2023-06-10T15:12:42;9;9;
47810;PMS5003;33575;52.600;7.318;2023-06-10T15:15:13;10;9;
47810;PMS5003;33575;52.600;7.318;2023-06-10T15:17:42;8;8;
47810;PMS5003;33575;52.600;7.318;2023-06-10T15:20:12;11;11;
47810;PMS5003;33575;52.600;7.318;2023-06-10T15:22:42;11;11;
47810;PMS5003;33575;52.600;7.318;2023-06-10T15:25:15;12;11;
47810;PMS5003;33575;52.600;7.318;2023-06-10T15:27:42;8;8;
47810;PMS5003;33575;52.600;7.318;2023-06-10T15:30:12;13;13;
47810;PMS5003;33575;52.600;7.318;2023-06-10T15:32:43;12;11;
47810;PMS5003;33575;52.600;7.318;2023-06-10T15:35:13;11;10;
47810;PMS5003;33575;52.600;7.318;2023-06-10T15:37:43;10;9;
47810;PMS5003;33575;52.600;7.318;2023-06-10T15:40:13;8;8;
47810;PMS5003;33575;52.600;7.318;2023-06-10T15:42:44;11;10;
47810;PMS5003;33575;52.600;7.318;2023-06-10T15:45:14;10;10;
47810;PMS5003;33575;52.600;7.318;2023-06-10T15:47:44;11;10;
47810;PMS5003;33575;52.600;7.318;2023-06-10T15:50:14;11;11;
47810;PMS5003;33575;52.600;7.318;2023-06-10T15:52:44;9;9;
47810;PMS5003;33575;52.600;7.318;2023-06-10T15:55:14;12;11;
47810;PMS5003;33575;52.600;7.318;2023-06-10T15:57:45;10;10;
47810;PMS5003;33575;52.600;7.318;2023-06-10T16:00:15;11;11;
47810;PMS5003;33575;52.600;7.318;2023-06-10T16:02:45;14;14;
47810;PMS5003;33575;52.600;7.318;2023-06-10T16:05:15;14;14;
47810;PMS5003;33575;52.600;7.318;2023-06-10T16:07:45;10;10;
47810;PMS5003;33575;52.600;7.318;2023-06-10T16:10:15;11;11;
47810;PMS5003;33575;52.600;7.318;2023-06-10T16:12:45;11;11;
47810;PMS5003;33575;52.600;7.318;2023-06-10T16:15:15;13;12;
47810;PMS5003;33575;52.600;7.318;2023-06-10T16:17:45;15;15;
47810;PMS5003;33575;52.600;7.318;2023-06-10T16:20:15;12;11;
47810;PMS5003;33575;52.600;7.318;2023-06-10T16:22:45;11;11;
47810;PMS5003;33575;52.600;7.318;2023-06-10T16:25:15;11;11;
47810;PMS5003;33575;52.600;7.318;2023-06-10T16:27:45;12;12;
47810;PMS5003;33575;52.600;7.318;2023-06-10T16:30:15;14;13;
47810;PMS5003;33575;52.600;7.318;2023-06-10T16:32:45;15;13;
47810;PMS5003;33575;52.600;7.318;2023-06-10T16:35:15;14;12;
47810;PMS5003;33575;52.600;7.318;2023-06-10T16:37:45;13;13;
47810;PMS5003;33575;52.600;7.318;2023-06-10T16:40:15;14;13;
47810;PMS5003;33575;52.600;7.318;2023-06-10T16:42:45;14;13;
47810;PMS5003;33575;52.600;7.318;2023-06-10T16:45:16;16;14;
47810;PMS5003;33575;52.600;7.318;2023-06-10T16:47:46;14;13;
47810;PMS5003;33575;52.600;7.318;2023-06-10T16:50:16;14;13;
47810;PMS5003;33575;52.600;7.318;2023-06-10T16:52:46;15;14;
47810;PMS5003;33575;52.600;7.318;2023-06-10T16:55:16;16;15;